SHMÚ vydal meteorologické výstrahy na Storm Display warnings

TAF

Aerodrome Forecast TAF

TAF description (Slovak)

30.07.2016 - 23:00 UTC (Včera)

TAF LZSL 302300Z 0100/0109 VRB02KT CAVOK=
TAF LZZI 302300Z 0100/0109 VRB02KT CAVOK=

30.07.2016 - 23:00 UTC (Včera)

TAF LZIB 302300Z 0100/0124 30010KT CAVOK
    BECMG 0101/0103 9999 SCT045 BKN070
    TEMPO 0103/0113 -SHRA FEW045CB BKN060
    BECMG 0113/0115 VRB02KT CAVOK=
TAF LZKZ 302300Z 0100/0124 VRB02KT CAVOK
    PROB30 TEMPO 0112/0120 25008KT 9999 -TSRA SCT045CB BKN060=
TAF LZTT 302300Z 0100/0124 27005KT 9999 FEW065
    TEMPO 0109/0120 5000 TSRA SCT045CB BKN050=

skok na menu ↑


skok na začiatok stránky ↑